Air Navigation Services of Czech Republic  
Last data update:  26.06.2016 20:38:13 UTC Česká verze
   METEO Page displayed:  26.06.2016 20:41:19 UTC  
help
METAR EDDB 262020Z 17002KT CAVOK 18/08 Q1016 NOSIG=
METAR EDDC 262020Z VRB01KT CAVOK 19/10 Q1017=
METAR EDDE 262020Z 26007KT CAVOK 16/09 Q1018=
METAR EDDF 262020Z 32004KT 250V350 CAVOK 16/11 Q1019 NOSIG=
METAR EDDM 262020Z 31001KT 9999 -RA SCT034 BKN080 15/12 Q1020 NOSIG=
METAR EDDN 262020Z VRB01KT CAVOK 16/11 Q1019 NOSIG=
METAR EDDP 262020Z 27006KT CAVOK 18/10 Q1017 NOSIG=
METAR EDDT 262020Z 31003KT 230V350 CAVOK 19/09 Q1016 NOSIG=
METAR EDQM 261550Z 19006KT 160V250 CAVOK 19/08 Q1019=
METAR EPBY 262030Z 25002KT CAVOK 17/15 Q1016 =
METAR EPGD 262030Z 28008KT 9999 FEW033 16/12 Q1015 =
METAR EPKK 262030Z 33006KT 310V010 6000 -DZ FEW004 BKN006 18/16 Q1017 =
METAR EPKT 262030Z VRB02KT 9999 BKN015 OVC017 16/15 Q1018 =
METAR EPLL 262030Z 25005KT 9999 FEW012 BKN016 16/15 Q1017 =
METAR EPPO 262030Z VRB01KT CAVOK 17/15 Q1017 =
METAR EPRZ 262030Z 28007KT 9999 SCT030 21/18 Q1015 =
METAR EPWA 262030Z 27006KT 240V300 7000 OVC005 19/19 Q1015 NOSIG=
METAR EPWR 262030Z 13004KT CAVOK 17/14 Q1018 =
METAR LHBP 262030Z 36004KT CAVOK 23/17 Q1014 NOSIG=
METAR LHSM 261945Z 33007KT 9999 FEW020CB 21/17 Q1015=
METAR LKCV 262000Z 17003KT CAVOK 18/14 Q1018 NOSIG=
METAR LKKB 262000Z 10002KT CAVOK 18/13 Q1017 NOSIG =
METAR LKKU NIL
METAR LKKV 262000Z VRB02KT CAVOK 14/11 Q1019 RMK REG QNH 1014=
METAR LKLN 262000Z AUTO VRB02KT 9999 -RA FEW023 SCT030 17/12 Q1019=
METAR LKMT 262030Z 04004KT 9999 BKN040 17/15 Q1018 NOSIG RMK REG QNH 1014=
METAR LKNA 262000Z 35007KT CAVOK 17/12 Q1018 NOSIG=
METAR LKPD 262000Z 00000KT CAVOK 17/14 Q1018 NOSIG =
METAR LKPR 262030Z 06004KT 9999 BKN049 19/13 Q1018 NOSIG RMK REG QNH 1014=
METAR LKTB 262030Z VRB02KT CAVOK 19/14 Q1017 NOSIG RMK REG QNH 1014=
METAR LKVO NIL
METAR LOWI 262020Z VRB02KT 7000 RA SCT010 SCT020 BKN035 15/14 Q1020 NOSIG=
METAR LOWL 262020Z AUTO 26010KT 9999 FEW026 BKN034 18/13 Q1018 TEMPO FM2100 SHRA=
METAR LOWS 262020Z VRB02KT 9999 FEW020 SCT030 BKN035 14/12 Q1020 NOSIG=
METAR LOWW 262020Z 32007KT CAVOK 19/16 Q1017 NOSIG=
METAR LZIB 262030Z 34005KT 9999 FEW026 SCT100 22/17 Q1016=
METAR LZKZ 262030Z 36014KT CAVOK 24/18 Q1014=
METAR LZPP 262030Z AUTO 35010KT 9999 NCD 20/17 Q1015=
METAR LZSL 262030Z 00000KT CAVOK 20/17 Q1015=
METAR LZTT 262030Z 06007KT 9999 FEW040 19/16 Q1017=
METAR LZZI 262030Z 05003KT 020V080 9999 FEW025 18/15 Q1017=